首页
METAR-TAF:

METAR-TAF

机场 :

朱利叶斯·尼雷尔国际机场

达累斯萨拉姆, 坦桑尼亚

纬度: 06-52S, 经度: 039-12E, 海拔: 55米

当前天气观测

该预报发布于1小时和56分钟前的09:00 UTC
风速9节,风向
温度 32°C
湿度 67%
气压 1012 hPa
能见度10公里或以上
多云层高于2500英尺
少量云层高于2600英尺, 积雨云.
散云层高于8000英尺

METAR: HTDA 240900Z 17009KT 9999 BKN025 FEW026CB SCT080 32/25 Q1012 NOSIG

时间: 13:56 (10:56 UTC)

预报

该预报发布于5小时和56分钟前的05:00 UTC
预报有效从24日的 06点(UTC)到 25日的 12点(UTC)
风速10节,风向西转西南
能见度10公里或以上
散云层高于1200英尺
少量云层高于1300英尺, 积雨云.

TAF: HTDA 240500Z 2406/2512 24010KT 9999 SCT012 FEW013CB

超过4000个机场的气象观测和天气预报(METAR&TAF报告)。

可查询的气象台以黄色和红色小点在地图上表示。

将鼠标移到小点上方,可查看气象台名称。

然后点击查看天气观测和预报。

如需切换地图:点击带黑十字的绿色按钮放大地图;点击带横线的绿色按钮缩小地图;或者点击绿色箭头查看邻近地区的地图。


METAR-TAF: